sensor_id;sensor_type;location;lat;lon;timestamp;pressure;altitude;pressure_sealevel;temperature;humidity
85507;BME280;75915;41.988;21.460;2024-03-07T00:02:11;98533.13;;;9.86;68.78
85507;BME280;75915;41.988;21.460;2024-03-07T00:04:36;98530.69;;;9.85;68.82
85507;BME280;75915;41.988;21.460;2024-03-07T00:07:06;98521.59;;;9.86;68.75
85507;BME280;75915;41.988;21.460;2024-03-07T00:09:33;98518.97;;;9.91;68.84
85507;BME280;75915;41.988;21.460;2024-03-07T00:12:00;98528.31;;;9.93;68.34
85507;BME280;75915;41.988;21.460;2024-03-07T00:14:25;98534.22;;;10.00;68.12
85507;BME280;75915;41.988;21.460;2024-03-07T00:16:56;98531.81;;;9.99;68.23
85507;BME280;75915;41.988;21.460;2024-03-07T00:19:22;98528.34;;;10.03;68.23
85507;BME280;75915;41.988;21.460;2024-03-07T00:21:55;98539.84;;;10.09;67.75
85507;BME280;75915;41.988;21.460;2024-03-07T00:24:21;98539.31;;;10.07;68.08
85507;BME280;75915;41.988;21.460;2024-03-07T00:26:49;98548.19;;;10.08;68.13
85507;BME280;75915;41.988;21.460;2024-03-07T00:29:18;98544.97;;;10.11;68.14
85507;BME280;75915;41.988;21.460;2024-03-07T00:31:44;98550.84;;;10.08;67.99
85507;BME280;75915;41.988;21.460;2024-03-07T00:34:14;98545.50;;;10.08;68.19
85507;BME280;75915;41.988;21.460;2024-03-07T00:36:42;98534.25;;;10.06;68.30
85507;BME280;75915;41.988;21.460;2024-03-07T00:39:08;98534.50;;;9.99;68.26
85507;BME280;75915;41.988;21.460;2024-03-07T00:41:34;98544.63;;;9.92;68.63
85507;BME280;75915;41.988;21.460;2024-03-07T00:43:59;98544.41;;;9.98;68.36
85507;BME280;75915;41.988;21.460;2024-03-07T00:46:26;98544.59;;;9.76;68.88
85507;BME280;75915;41.988;21.460;2024-03-07T00:48:52;98540.25;;;9.65;69.58
85507;BME280;75915;41.988;21.460;2024-03-07T00:51:17;98541.91;;;9.76;69.04
85507;BME280;75915;41.988;21.460;2024-03-07T00:53:43;98554.50;;;9.81;68.96
85507;BME280;75915;41.988;21.460;2024-03-07T00:56:10;98552.66;;;9.87;68.39
85507;BME280;75915;41.988;21.460;2024-03-07T00:58:36;98556.16;;;9.97;68.38
85507;BME280;75915;41.988;21.460;2024-03-07T01:01:02;98564.50;;;10.06;67.86
85507;BME280;75915;41.988;21.460;2024-03-07T01:03:30;98562.63;;;10.12;67.77
85507;BME280;75915;41.988;21.460;2024-03-07T01:05:55;98560.47;;;9.98;68.31
85507;BME280;75915;41.988;21.460;2024-03-07T01:08:20;98555.31;;;9.87;68.85
85507;BME280;75915;41.988;21.460;2024-03-07T01:10:47;98562.84;;;9.95;68.75
85507;BME280;75915;41.988;21.460;2024-03-07T01:13:14;98569.03;;;10.00;68.40
85507;BME280;75915;41.988;21.460;2024-03-07T01:15:45;98578.13;;;10.10;68.03
85507;BME280;75915;41.988;21.460;2024-03-07T01:18:10;98573.06;;;10.08;67.95
85507;BME280;75915;41.988;21.460;2024-03-07T01:20:36;98587.00;;;10.15;67.81
85507;BME280;75915;41.988;21.460;2024-03-07T01:23:02;98596.94;;;10.20;67.93
85507;BME280;75915;41.988;21.460;2024-03-07T01:25:28;98598.53;;;10.26;67.66
85507;BME280;75915;41.988;21.460;2024-03-07T01:27:55;98603.69;;;10.33;67.39
85507;BME280;75915;41.988;21.460;2024-03-07T01:30:20;98607.16;;;10.33;66.85
85507;BME280;75915;41.988;21.460;2024-03-07T01:32:48;98601.81;;;10.33;66.66
85507;BME280;75915;41.988;21.460;2024-03-07T01:35:14;98605.56;;;10.37;67.60
85507;BME280;75915;41.988;21.460;2024-03-07T01:37:40;98616.53;;;10.41;67.56
85507;BME280;75915;41.988;21.460;2024-03-07T01:40:06;98610.69;;;10.44;67.61
85507;BME280;75915;41.988;21.460;2024-03-07T01:42:33;98612.00;;;10.41;67.75
85507;BME280;75915;41.988;21.460;2024-03-07T01:44:59;98615.50;;;10.42;68.06
85507;BME280;75915;41.988;21.460;2024-03-07T01:47:25;98616.56;;;10.46;68.10
85507;BME280;75915;41.988;21.460;2024-03-07T01:49:51;98572.66;;;10.47;68.21
85507;BME280;75915;41.988;21.460;2024-03-07T01:52:17;98551.22;;;10.37;64.85
85507;BME280;75915;41.988;21.460;2024-03-07T01:54:42;98519.75;;;9.96;63.58
85507;BME280;75915;41.988;21.460;2024-03-07T01:57:08;98490.31;;;9.86;62.78
85507;BME280;75915;41.988;21.460;2024-03-07T01:59:34;98477.97;;;9.80;62.13
85507;BME280;75915;41.988;21.460;2024-03-07T02:02:02;98468.91;;;9.86;62.94
85507;BME280;75915;41.988;21.460;2024-03-07T02:04:28;98478.81;;;9.96;63.59
85507;BME280;75915;41.988;21.460;2024-03-07T02:06:53;98474.53;;;10.00;63.97
85507;BME280;75915;41.988;21.460;2024-03-07T02:09:20;98467.03;;;10.02;65.54
85507;BME280;75915;41.988;21.460;2024-03-07T02:11:49;98465.97;;;10.03;64.57
85507;BME280;75915;41.988;21.460;2024-03-07T02:14:15;98469.47;;;9.98;65.67
85507;BME280;75915;41.988;21.460;2024-03-07T02:16:42;98465.16;;;9.92;65.05
85507;BME280;75915;41.988;21.460;2024-03-07T02:19:07;98479.31;;;9.93;65.65
85507;BME280;75915;41.988;21.460;2024-03-07T02:21:35;98478.81;;;9.91;63.55
85507;BME280;75915;41.988;21.460;2024-03-07T02:24:02;98480.66;;;9.85;65.22
85507;BME280;75915;41.988;21.460;2024-03-07T02:26:27;98487.31;;;9.72;66.12
85507;BME280;75915;41.988;21.460;2024-03-07T02:28:53;98500.16;;;9.80;67.34
85507;BME280;75915;41.988;21.460;2024-03-07T02:31:19;98507.94;;;9.82;67.98
85507;BME280;75915;41.988;21.460;2024-03-07T02:33:46;98510.38;;;9.83;68.29
85507;BME280;75915;41.988;21.460;2024-03-07T02:36:12;98498.84;;;9.83;68.48
85507;BME280;75915;41.988;21.460;2024-03-07T02:38:39;98485.75;;;9.81;68.77
85507;BME280;75915;41.988;21.460;2024-03-07T02:41:05;98492.69;;;9.82;69.00
85507;BME280;75915;41.988;21.460;2024-03-07T02:43:31;98485.47;;;9.83;68.78
85507;BME280;75915;41.988;21.460;2024-03-07T02:45:57;98488.41;;;9.81;69.23
85507;BME280;75915;41.988;21.460;2024-03-07T02:48:22;98488.41;;;9.76;68.94
85507;BME280;75915;41.988;21.460;2024-03-07T02:50:49;98494.19;;;9.53;69.91
85507;BME280;75915;41.988;21.460;2024-03-07T02:53:14;98489.06;;;9.36;70.62
85507;BME280;75915;41.988;21.460;2024-03-07T02:55:41;98477.75;;;9.18;71.65
85507;BME280;75915;41.988;21.460;2024-03-07T02:58:07;98483.09;;;9.24;71.64
85507;BME280;75915;41.988;21.460;2024-03-07T03:00:35;98470.56;;;9.29;71.45
85507;BME280;75915;41.988;21.460;2024-03-07T03:03:01;98467.94;;;9.39;71.18
85507;BME280;75915;41.988;21.460;2024-03-07T03:05:26;98473.56;;;9.38;71.66
85507;BME280;75915;41.988;21.460;2024-03-07T03:07:52;98489.34;;;9.45;71.34
85507;BME280;75915;41.988;21.460;2024-03-07T03:10:24;98492.06;;;9.50;71.24
85507;BME280;75915;41.988;21.460;2024-03-07T03:12:54;98493.34;;;9.42;71.52
85507;BME280;75915;41.988;21.460;2024-03-07T03:15:20;98494.09;;;9.32;71.27
85507;BME280;75915;41.988;21.460;2024-03-07T03:17:47;98486.06;;;9.27;71.42
85507;BME280;75915;41.988;21.460;2024-03-07T03:20:13;98496.69;;;9.17;72.09
85507;BME280;75915;41.988;21.460;2024-03-07T03:23:12;98502.28;;;9.15;72.20
85507;BME280;75915;41.988;21.460;2024-03-07T03:25:42;98508.69;;;9.09;71.87
85507;BME280;75915;41.988;21.460;2024-03-07T03:28:09;98505.41;;;8.97;72.20
85507;BME280;75915;41.988;21.460;2024-03-07T03:30:38;98502.16;;;8.90;72.89
85507;BME280;75915;41.988;21.460;2024-03-07T03:33:06;98494.16;;;8.90;72.47
85507;BME280;75915;41.988;21.460;2024-03-07T03:35:34;98496.28;;;8.93;71.78
85507;BME280;75915;41.988;21.460;2024-03-07T03:38:00;98493.53;;;8.78;72.36
85507;BME280;75915;41.988;21.460;2024-03-07T03:40:27;98497.88;;;8.89;72.76
85507;BME280;75915;41.988;21.460;2024-03-07T03:42:53;98496.53;;;8.91;72.01
85507;BME280;75915;41.988;21.460;2024-03-07T03:45:18;98497.41;;;8.97;72.12
85507;BME280;75915;41.988;21.460;2024-03-07T03:47:44;98501.13;;;8.96;71.83
85507;BME280;75915;41.988;21.460;2024-03-07T03:50:13;98497.66;;;8.95;71.89
85507;BME280;75915;41.988;21.460;2024-03-07T03:52:41;98496.84;;;8.95;71.96
85507;BME280;75915;41.988;21.460;2024-03-07T03:55:10;98493.66;;;8.98;71.72
85507;BME280;75915;41.988;21.460;2024-03-07T03:57:42;98486.97;;;9.01;71.83
85507;BME280;75915;41.988;21.460;2024-03-07T04:00:09;98491.50;;;8.95;72.15
85507;BME280;75915;41.988;21.460;2024-03-07T04:02:41;98490.66;;;8.89;72.35
85507;BME280;75915;41.988;21.460;2024-03-07T04:05:08;98491.19;;;8.91;72.50
85507;BME280;75915;41.988;21.460;2024-03-07T04:07:35;98501.13;;;8.96;72.18
85507;BME280;75915;41.988;21.460;2024-03-07T04:10:00;98497.94;;;8.99;72.05
85507;BME280;75915;41.988;21.460;2024-03-07T04:12:46;98502.16;;;8.90;72.20
85507;BME280;75915;41.988;21.460;2024-03-07T04:15:14;98498.94;;;8.88;72.48
85507;BME280;75915;41.988;21.460;2024-03-07T04:17:42;98502.44;;;8.93;72.25
85507;BME280;75915;41.988;21.460;2024-03-07T04:20:10;98511.00;;;8.95;72.29
85507;BME280;75915;41.988;21.460;2024-03-07T04:22:37;98508.88;;;8.97;72.99
85507;BME280;75915;41.988;21.460;2024-03-07T04:25:08;98507.31;;;9.02;72.55
85507;BME280;75915;41.988;21.460;2024-03-07T04:27:35;98511.06;;;9.06;72.26
85507;BME280;75915;41.988;21.460;2024-03-07T04:30:06;98509.31;;;8.84;72.89
85507;BME280;75915;41.988;21.460;2024-03-07T04:32:33;98511.84;;;8.64;73.65
85507;BME280;75915;41.988;21.460;2024-03-07T04:35:03;98506.63;;;8.47;74.22
85507;BME280;75915;41.988;21.460;2024-03-07T04:37:36;98506.84;;;8.40;74.26
85507;BME280;75915;41.988;21.460;2024-03-07T04:40:05;98507.34;;;8.10;75.50
85507;BME280;75915;41.988;21.460;2024-03-07T04:42:45;98505.34;;;7.95;75.95
85507;BME280;75915;41.988;21.460;2024-03-07T04:45:11;98519.63;;;7.84;75.92
85507;BME280;75915;41.988;21.460;2024-03-07T04:47:42;98511.84;;;7.82;76.06
85507;BME280;75915;41.988;21.460;2024-03-07T04:50:08;98525.81;;;7.89;76.11
85507;BME280;75915;41.988;21.460;2024-03-07T04:52:40;98521.50;;;8.10;75.49
85507;BME280;75915;41.988;21.460;2024-03-07T04:55:09;98532.13;;;8.05;75.12
85507;BME280;75915;41.988;21.460;2024-03-07T04:57:36;98528.13;;;8.08;75.38
85507;BME280;75915;41.988;21.460;2024-03-07T05:00:11;98538.66;;;8.20;74.78
85507;BME280;75915;41.988;21.460;2024-03-07T05:02:40;98527.13;;;8.14;74.91
85507;BME280;75915;41.988;21.460;2024-03-07T05:05:07;98526.47;;;8.02;75.14
85507;BME280;75915;41.988;21.460;2024-03-07T05:07:33;98528.28;;;7.96;75.57
85507;BME280;75915;41.988;21.460;2024-03-07T05:09:59;98529.75;;;8.09;75.05
85507;BME280;75915;41.988;21.460;2024-03-07T05:12:25;98533.88;;;8.22;74.26
85507;BME280;75915;41.988;21.460;2024-03-07T05:14:50;98521.94;;;8.29;74.16
85507;BME280;75915;41.988;21.460;2024-03-07T05:17:16;98532.44;;;8.36;74.03
85507;BME280;75915;41.988;21.460;2024-03-07T05:19:44;98529.84;;;8.41;73.99
85507;BME280;75915;41.988;21.460;2024-03-07T05:22:14;98536.38;;;8.33;74.05
85507;BME280;75915;41.988;21.460;2024-03-07T05:24:42;98534.03;;;8.37;73.95
85507;BME280;75915;41.988;21.460;2024-03-07T05:27:11;98542.53;;;8.34;74.04
85507;BME280;75915;41.988;21.460;2024-03-07T05:29:37;98552.16;;;8.35;73.58
85507;BME280;75915;41.988;21.460;2024-03-07T05:32:26;98543.91;;;8.09;74.41
85507;BME280;75915;41.988;21.460;2024-03-07T05:34:52;98540.38;;;8.04;74.74
85507;BME280;75915;41.988;21.460;2024-03-07T05:37:21;98534.88;;;8.16;74.49
85507;BME280;75915;41.988;21.460;2024-03-07T05:39:48;98545.66;;;8.26;74.21
85507;BME280;75915;41.988;21.460;2024-03-07T05:42:13;98546.94;;;8.45;73.86
85507;BME280;75915;41.988;21.460;2024-03-07T05:44:41;98554.53;;;8.59;73.55
85507;BME280;75915;41.988;21.460;2024-03-07T05:47:07;98557.88;;;8.76;73.06
85507;BME280;75915;41.988;21.460;2024-03-07T05:49:36;98558.78;;;8.87;72.63
85507;BME280;75915;41.988;21.460;2024-03-07T05:52:05;98550.81;;;8.92;72.49
85507;BME280;75915;41.988;21.460;2024-03-07T05:54:33;98553.75;;;8.95;72.21
85507;BME280;75915;41.988;21.460;2024-03-07T05:56:59;98555.63;;;8.95;71.99
85507;BME280;75915;41.988;21.460;2024-03-07T05:59:25;98562.38;;;9.03;72.11
85507;BME280;75915;41.988;21.460;2024-03-07T06:01:53;98564.25;;;9.07;71.96
85507;BME280;75915;41.988;21.460;2024-03-07T06:04:19;98572.03;;;9.09;71.62
85507;BME280;75915;41.988;21.460;2024-03-07T06:06:46;98573.28;;;8.64;72.66
85507;BME280;75915;41.988;21.460;2024-03-07T06:09:14;98578.78;;;8.52;73.89
85507;BME280;75915;41.988;21.460;2024-03-07T06:11:40;98580.19;;;8.92;73.00
85507;BME280;75915;41.988;21.460;2024-03-07T06:14:09;98572.97;;;9.82;70.99
85507;BME280;75915;41.988;21.460;2024-03-07T06:16:39;98572.13;;;11.12;67.80
85507;BME280;75915;41.988;21.460;2024-03-07T06:19:08;98560.06;;;12.44;63.42
85507;BME280;75915;41.988;21.460;2024-03-07T06:21:36;98557.78;;;13.30;60.35
85507;BME280;75915;41.988;21.460;2024-03-07T06:24:06;98563.97;;;14.22;57.68
85507;BME280;75915;41.988;21.460;2024-03-07T06:26:34;98548.72;;;14.88;54.80
85507;BME280;75915;41.988;21.460;2024-03-07T06:29:15;98549.72;;;15.52;53.66
85507;BME280;75915;41.988;21.460;2024-03-07T06:31:42;98549.75;;;16.30;52.24
85507;BME280;75915;41.988;21.460;2024-03-07T06:34:09;98553.97;;;16.36;51.75
85507;BME280;75915;41.988;21.460;2024-03-07T06:36:37;98554.50;;;16.47;51.55
85507;BME280;75915;41.988;21.460;2024-03-07T06:39:03;98551.81;;;16.11;51.66
85507;BME280;75915;41.988;21.460;2024-03-07T06:41:36;98546.75;;;16.32;50.89
85507;BME280;75915;41.988;21.460;2024-03-07T06:44:02;98544.19;;;16.72;49.94
85507;BME280;75915;41.988;21.460;2024-03-07T06:46:29;98536.63;;;17.05;50.22
85507;BME280;75915;41.988;21.460;2024-03-07T06:48:55;98544.63;;;17.10;48.78
85507;BME280;75915;41.988;21.460;2024-03-07T06:51:23;98544.69;;;16.74;49.56
85507;BME280;75915;41.988;21.460;2024-03-07T06:53:50;98547.03;;;16.44;51.07
85507;BME280;75915;41.988;21.460;2024-03-07T06:56:16;98549.72;;;16.44;50.32
85507;BME280;75915;41.988;21.460;2024-03-07T06:58:41;98564.53;;;16.47;50.40
85507;BME280;75915;41.988;21.460;2024-03-07T07:01:07;98562.25;;;16.40;50.75
85507;BME280;75915;41.988;21.460;2024-03-07T07:03:36;98549.31;;;16.73;49.40
85507;BME280;75915;41.988;21.460;2024-03-07T07:06:03;98547.38;;;16.88;48.37
85507;BME280;75915;41.988;21.460;2024-03-07T07:08:31;98545.91;;;16.45;48.25
85507;BME280;75915;41.988;21.460;2024-03-07T07:10:58;98557.88;;;16.30;48.47
85507;BME280;75915;41.988;21.460;2024-03-07T07:13:23;98556.50;;;16.19;49.05
85507;BME280;75915;41.988;21.460;2024-03-07T07:15:49;98555.63;;;15.68;49.63
85507;BME280;75915;41.988;21.460;2024-03-07T07:18:15;98561.22;;;15.44;50.41
85507;BME280;75915;41.988;21.460;2024-03-07T07:20:42;98560.41;;;15.44;49.88
85507;BME280;75915;41.988;21.460;2024-03-07T07:23:12;98553.66;;;15.74;48.72
85507;BME280;75915;41.988;21.460;2024-03-07T07:25:38;98560.13;;;16.00;48.80
85507;BME280;75915;41.988;21.460;2024-03-07T07:28:04;98552.31;;;16.13;48.10
85507;BME280;75915;41.988;21.460;2024-03-07T07:30:30;98554.84;;;16.09;47.83
85507;BME280;75915;41.988;21.460;2024-03-07T07:32:55;98557.59;;;16.18;47.74
85507;BME280;75915;41.988;21.460;2024-03-07T07:35:24;98560.63;;;16.03;47.63
85507;BME280;75915;41.988;21.460;2024-03-07T07:37:51;98555.31;;;16.11;47.98
85507;BME280;75915;41.988;21.460;2024-03-07T07:40:20;98565.53;;;15.87;48.33
85507;BME280;75915;41.988;21.460;2024-03-07T07:42:52;98561.84;;;15.69;48.51
85507;BME280;75915;41.988;21.460;2024-03-07T07:45:19;98563.44;;;15.42;49.13
85507;BME280;75915;41.988;21.460;2024-03-07T07:47:47;98568.09;;;15.36;48.39
85507;BME280;75915;41.988;21.460;2024-03-07T07:50:16;98559.63;;;15.43;48.39
85507;BME280;75915;41.988;21.460;2024-03-07T07:52:52;98558.16;;;15.78;48.47
85507;BME280;75915;41.988;21.460;2024-03-07T07:55:23;98560.03;;;15.50;48.62
85507;BME280;75915;41.988;21.460;2024-03-07T07:57:51;98552.06;;;15.12;49.33
85507;BME280;75915;41.988;21.460;2024-03-07T08:00:22;98551.03;;;14.43;50.94
85507;BME280;75915;41.988;21.460;2024-03-07T08:05:18;98556.16;;;13.82;53.86
85507;BME280;75915;41.988;21.460;2024-03-07T08:07:46;98552.59;;;13.87;53.80
85507;BME280;75915;41.988;21.460;2024-03-07T08:10:14;98556.69;;;13.31;54.46
85507;BME280;75915;41.988;21.460;2024-03-07T08:12:40;98557.34;;;13.47;54.65
85507;BME280;75915;41.988;21.460;2024-03-07T08:15:12;98565.03;;;13.59;55.74
85507;BME280;75915;41.988;21.460;2024-03-07T08:17:43;98558.09;;;14.58;53.70
85507;BME280;75915;41.988;21.460;2024-03-07T08:20:17;98558.09;;;15.23;52.20
85507;BME280;75915;41.988;21.460;2024-03-07T08:22:44;98546.47;;;15.09;51.80
85507;BME280;75915;41.988;21.460;2024-03-07T08:25:11;98552.78;;;14.85;52.45
85507;BME280;75915;41.988;21.460;2024-03-07T08:27:40;98548.88;;;15.24;52.83
85507;BME280;75915;41.988;21.460;2024-03-07T08:30:07;98556.78;;;15.21;50.83
85507;BME280;75915;41.988;21.460;2024-03-07T08:32:36;98551.41;;;14.88;51.88
85507;BME280;75915;41.988;21.460;2024-03-07T08:35:05;98552.25;;;14.69;52.54
85507;BME280;75915;41.988;21.460;2024-03-07T08:37:36;98554.69;;;15.31;51.47
85507;BME280;75915;41.988;21.460;2024-03-07T08:40:02;98552.06;;;15.73;50.75
85507;BME280;75915;41.988;21.460;2024-03-07T08:42:36;98556.31;;;16.15;50.20
85507;BME280;75915;41.988;21.460;2024-03-07T08:45:03;98564.56;;;15.08;52.35
85507;BME280;75915;41.988;21.460;2024-03-07T08:47:34;98559.88;;;15.14;51.53
85507;BME280;75915;41.988;21.460;2024-03-07T08:50:00;98557.44;;;15.59;51.46
85507;BME280;75915;41.988;21.460;2024-03-07T08:52:26;98567.59;;;15.21;51.16
85507;BME280;75915;41.988;21.460;2024-03-07T08:54:54;98563.59;;;15.18;50.92
85507;BME280;75915;41.988;21.460;2024-03-07T08:57:19;98568.59;;;15.25;49.86
85507;BME280;75915;41.988;21.460;2024-03-07T08:59:49;98578.81;;;14.00;51.90
85507;BME280;75915;41.988;21.460;2024-03-07T09:02:15;98573.13;;;14.02;52.44
85507;BME280;75915;41.988;21.460;2024-03-07T09:04:42;98566.16;;;14.39;52.13
85507;BME280;75915;41.988;21.460;2024-03-07T09:07:08;98583.03;;;14.25;51.50
85507;BME280;75915;41.988;21.460;2024-03-07T09:09:35;98578.88;;;14.57;50.35
85507;BME280;75915;41.988;21.460;2024-03-07T09:12:01;98577.41;;;14.03;52.20
85507;BME280;75915;41.988;21.460;2024-03-07T09:14:29;98585.69;;;14.12;51.75
85507;BME280;75915;41.988;21.460;2024-03-07T09:16:55;98576.00;;;14.48;52.51
85507;BME280;75915;41.988;21.460;2024-03-07T09:19:24;98576.34;;;14.99;49.10
85507;BME280;75915;41.988;21.460;2024-03-07T09:21:52;98583.31;;;15.00;49.68
85507;BME280;75915;41.988;21.460;2024-03-07T09:24:20;98580.22;;;14.73;47.61
85507;BME280;75915;41.988;21.460;2024-03-07T09:26:50;98574.03;;;14.73;49.91
85507;BME280;75915;41.988;21.460;2024-03-07T09:29:18;98571.13;;;14.69;50.74
85507;BME280;75915;41.988;21.460;2024-03-07T09:31:56;98566.63;;;14.98;48.73
85507;BME280;75915;41.988;21.460;2024-03-07T09:34:26;98572.09;;;14.60;48.65
85507;BME280;75915;41.988;21.460;2024-03-07T09:36:56;98569.94;;;14.19;49.21
85507;BME280;75915;41.988;21.460;2024-03-07T09:39:23;98574.53;;;13.75;50.19
85507;BME280;75915;41.988;21.460;2024-03-07T09:41:49;98577.44;;;13.55;49.76
85507;BME280;75915;41.988;21.460;2024-03-07T09:44:18;98578.41;;;13.40;51.92
85507;BME280;75915;41.988;21.460;2024-03-07T09:46:52;98574.50;;;13.27;52.70
85507;BME280;75915;41.988;21.460;2024-03-07T09:49:19;98568.84;;;13.23;52.43
85507;BME280;75915;41.988;21.460;2024-03-07T09:51:47;98577.50;;;13.20;49.43
85507;BME280;75915;41.988;21.460;2024-03-07T09:54:12;98573.91;;;13.01;51.24
85507;BME280;75915;41.988;21.460;2024-03-07T09:56:40;98568.56;;;12.96;51.89
85507;BME280;75915;41.988;21.460;2024-03-07T09:59:11;98563.56;;;12.84;52.11
85507;BME280;75915;41.988;21.460;2024-03-07T10:01:39;98569.47;;;12.86;52.73
85507;BME280;75915;41.988;21.460;2024-03-07T10:04:12;98565.16;;;13.14;52.91
85507;BME280;75915;41.988;21.460;2024-03-07T10:06:43;98563.53;;;13.18;52.63
85507;BME280;75915;41.988;21.460;2024-03-07T10:09:11;98562.94;;;13.27;52.93
85507;BME280;75915;41.988;21.460;2024-03-07T10:11:40;98551.03;;;13.33;53.56
85507;BME280;75915;41.988;21.460;2024-03-07T10:14:07;98555.03;;;13.35;53.79
85507;BME280;75915;41.988;21.460;2024-03-07T10:16:32;98545.91;;;13.60;53.13
85507;BME280;75915;41.988;21.460;2024-03-07T10:18:58;98548.53;;;13.65;50.45
85507;BME280;75915;41.988;21.460;2024-03-07T10:21:27;98536.44;;;13.63;48.51
85507;BME280;75915;41.988;21.460;2024-03-07T10:24:07;98536.66;;;13.66;48.66
85507;BME280;75915;41.988;21.460;2024-03-07T10:26:37;98527.84;;;13.85;48.42
85507;BME280;75915;41.988;21.460;2024-03-07T10:29:06;98539.25;;;13.96;48.31
85507;BME280;75915;41.988;21.460;2024-03-07T10:31:33;98526.03;;;14.18;48.65
85507;BME280;75915;41.988;21.460;2024-03-07T10:34:05;98530.09;;;13.97;48.24
85507;BME280;75915;41.988;21.460;2024-03-07T10:36:33;98523.25;;;13.85;48.83
85507;BME280;75915;41.988;21.460;2024-03-07T10:39:00;98520.56;;;13.85;48.81
85507;BME280;75915;41.988;21.460;2024-03-07T10:41:48;98519.59;;;13.76;48.84
85507;BME280;75915;41.988;21.460;2024-03-07T10:44:35;98511.81;;;13.94;48.66
85507;BME280;75915;41.988;21.460;2024-03-07T10:47:04;98518.03;;;13.94;47.17
85507;BME280;75915;41.988;21.460;2024-03-07T10:49:33;98513.00;;;13.87;47.45
85507;BME280;75915;41.988;21.460;2024-03-07T10:52:06;98518.44;;;13.82;47.22
85507;BME280;75915;41.988;21.460;2024-03-07T10:54:58;98510.56;;;13.86;48.04
85507;BME280;75915;41.988;21.460;2024-03-07T10:57:32;98503.16;;;13.78;49.32
85507;BME280;75915;41.988;21.460;2024-03-07T11:00:04;98500.84;;;13.90;47.95
85507;BME280;75915;41.988;21.460;2024-03-07T11:02:51;98498.22;;;13.85;47.42
85507;BME280;75915;41.988;21.460;2024-03-07T11:05:20;98492.53;;;14.05;47.53
85507;BME280;75915;41.988;21.460;2024-03-07T11:07:51;98490.50;;;14.16;47.28
85507;BME280;75915;41.988;21.460;2024-03-07T11:10:18;98487.13;;;14.24;46.43
85507;BME280;75915;41.988;21.460;2024-03-07T11:12:46;98488.72;;;14.44;46.39
85507;BME280;75915;41.988;21.460;2024-03-07T11:15:14;98484.28;;;14.35;45.71
85507;BME280;75915;41.988;21.460;2024-03-07T11:17:45;98470.78;;;14.21;44.17
85507;BME280;75915;41.988;21.460;2024-03-07T11:20:26;98475.81;;;13.90;45.48
85507;BME280;75915;41.988;21.460;2024-03-07T11:22:52;98475.91;;;13.79;46.12
85507;BME280;75915;41.988;21.460;2024-03-07T11:25:29;98470.09;;;13.72;45.63
85507;BME280;75915;41.988;21.460;2024-03-07T11:27:59;98464.22;;;13.70;46.43
85507;BME280;75915;41.988;21.460;2024-03-07T11:30:25;98461.75;;;14.12;46.09
85507;BME280;75915;41.988;21.460;2024-03-07T11:32:53;98457.81;;;14.04;44.85
85507;BME280;75915;41.988;21.460;2024-03-07T11:35:31;98452.94;;;13.87;45.37
85507;BME280;75915;41.988;21.460;2024-03-07T11:37:58;98456.84;;;13.76;45.43
85507;BME280;75915;41.988;21.460;2024-03-07T11:42:55;98450.25;;;13.87;45.18
85507;BME280;75915;41.988;21.460;2024-03-07T11:45:25;98447.50;;;14.25;44.17
85507;BME280;75915;41.988;21.460;2024-03-07T11:47:58;98447.91;;;13.99;42.04
85507;BME280;75915;41.988;21.460;2024-03-07T11:50:39;98443.25;;;14.05;41.83
85507;BME280;75915;41.988;21.460;2024-03-07T11:53:08;98436.63;;;14.16;43.00
85507;BME280;75915;41.988;21.460;2024-03-07T11:55:35;98427.16;;;14.19;41.05
85507;BME280;75915;41.988;21.460;2024-03-07T11:58:18;98424.66;;;14.03;41.64
85507;BME280;75915;41.988;21.460;2024-03-07T12:00:47;98424.19;;;14.01;42.75
85507;BME280;75915;41.988;21.460;2024-03-07T12:03:18;98423.28;;;14.06;43.59
85507;BME280;75915;41.988;21.460;2024-03-07T12:05:50;98424.56;;;14.27;43.91
85507;BME280;75915;41.988;21.460;2024-03-07T12:08:19;98415.31;;;14.34;43.22
85507;BME280;75915;41.988;21.460;2024-03-07T12:10:48;98412.53;;;14.39;43.16
85507;BME280;75915;41.988;21.460;2024-03-07T12:13:20;98410.00;;;14.28;41.26
85507;BME280;75915;41.988;21.460;2024-03-07T12:15:47;98415.25;;;14.20;42.18
85507;BME280;75915;41.988;21.460;2024-03-07T12:18:13;98407.78;;;14.17;41.17
85507;BME280;75915;41.988;21.460;2024-03-07T12:20:43;98408.72;;;14.26;40.53
85507;BME280;75915;41.988;21.460;2024-03-07T12:23:18;98405.84;;;14.36;42.22
85507;BME280;75915;41.988;21.460;2024-03-07T12:25:45;98414.84;;;14.45;41.78
85507;BME280;75915;41.988;21.460;2024-03-07T12:28:12;98406.31;;;14.57;41.02
85507;BME280;75915;41.988;21.460;2024-03-07T12:30:51;98402.16;;;14.65;41.74
85507;BME280;75915;41.988;21.460;2024-03-07T12:33:19;98400.44;;;14.83;42.51
85507;BME280;75915;41.988;21.460;2024-03-07T12:35:48;98401.47;;;14.87;39.85
85507;BME280;75915;41.988;21.460;2024-03-07T12:38:19;98392.69;;;14.81;40.45
85507;BME280;75915;41.988;21.460;2024-03-07T12:41:01;98393.47;;;14.82;39.87
85507;BME280;75915;41.988;21.460;2024-03-07T12:43:31;98390.69;;;14.87;40.22
85507;BME280;75915;41.988;21.460;2024-03-07T12:45:59;98386.69;;;14.84;39.92
85507;BME280;75915;41.988;21.460;2024-03-07T12:48:24;98385.28;;;14.87;39.41
85507;BME280;75915;41.988;21.460;2024-03-07T12:50:51;98387.75;;;14.83;39.58
85507;BME280;75915;41.988;21.460;2024-03-07T12:53:20;98387.56;;;14.80;39.56
85507;BME280;75915;41.988;21.460;2024-03-07T12:55:47;98392.69;;;14.81;38.90
85507;BME280;75915;41.988;21.460;2024-03-07T12:58:13;98387.97;;;14.73;38.87
85507;BME280;75915;41.988;21.460;2024-03-07T13:00:40;98385.25;;;14.73;38.45
85507;BME280;75915;41.988;21.460;2024-03-07T13:03:07;98385.06;;;14.69;38.18
85507;BME280;75915;41.988;21.460;2024-03-07T13:05:35;98378.06;;;14.68;38.69